Time;durP1;ratioP1;P1;durP2;ratioP2;P2;SDS_P1;SDS_P2;PMS_P1;PMS_P2;Temp;Humidity;BMP_temperature;BMP_pressure;BME280_temperature;BME280_humidity;BME280_pressure;Samples;Min_cycle;Max_cycle;Signal;HPM_P1;HPM_P2
2021/05/17 00:02:02;;;;;;;;;;;;;;;7.10;100.00;99450.97;5053885;28;19936;-68
2021/05/17 00:04:32;;;;;;;;;;;;;;;7.10;100.00;99450.97;5053799;28;20369;-68
2021/05/17 00:06:58;;;;;;;;;;;;;;;7.11;100.00;99456.22;5053663;28;19925;-68
2021/05/17 00:09:24;;;;;;;;;;;;;;;7.06;100.00;99447.66;5053757;28;19935;-68
2021/05/17 00:11:50;;;;;;;;;;;;;;;6.98;100.00;99447.50;5053376;28;19925;-68
2021/05/17 00:14:16;;;;;;;;;;;;;;;6.89;100.00;99449.13;5035720;28;19925;-68
2021/05/17 00:16:43;;;;;;;;;;;;;;;6.87;100.00;99446.56;5053348;28;19924;-68
2021/05/17 00:19:09;;;;;;;;;;;;;;;6.82;100.00;99445.25;5053252;28;20379;-68
2021/05/17 00:21:35;;;;;;;;;;;;;;;6.74;100.00;99445.06;5053602;28;20331;-68
2021/05/17 00:24:02;;;;;;;;;;;;;;;6.73;100.00;99443.34;5053026;28;19968;-68
2021/05/17 00:26:28;;;;;;;;;;;;;;;6.67;100.00;99450.13;5053350;28;19932;-68
2021/05/17 00:28:54;;;;;;;;;;;;;;;6.67;100.00;99445.56;5052954;28;19972;-68
2021/05/17 00:31:20;;;;;;;;;;;;;;;6.74;100.00;99454.00;5053408;28;19925;-68
2021/05/17 00:33:46;;;;;;;;;;;;;;;6.73;100.00;99449.59;5035309;28;19925;-68
2021/05/17 00:36:13;;;;;;;;;;;;;;;6.73;100.00;99448.75;5052713;28;20359;-68
2021/05/17 00:38:39;;;;;;;;;;;;;;;6.74;100.00;99447.75;5053124;28;19986;-68
2021/05/17 00:41:05;;;;;;;;;;;;;;;6.71;100.00;99446.19;5052797;28;19925;-68
2021/05/17 00:43:35;;;;;;;;;;;;;;;6.70;100.00;99441.75;5052913;28;19929;-68
2021/05/17 00:46:01;;;;;;;;;;;;;;;6.68;100.00;99444.59;5053024;28;19925;-68
2021/05/17 00:48:28;;;;;;;;;;;;;;;6.64;100.00;99451.25;5052870;28;19933;-68
2021/05/17 00:50:54;;;;;;;;;;;;;;;6.61;100.00;99445.25;5052902;28;19970;-68
2021/05/17 00:53:21;;;;;;;;;;;;;;;6.59;100.00;99452.59;5034639;28;19925;-68
2021/05/17 00:55:47;;;;;;;;;;;;;;;6.56;100.00;99445.66;5053003;28;19932;-67
2021/05/17 00:58:13;;;;;;;;;;;;;;;6.54;100.00;99439.53;5052614;28;19929;-68
2021/05/17 01:00:40;;;;;;;;;;;;;;;6.49;100.00;99449.84;5052686;28;19976;-68
2021/05/17 01:03:08;;;;;;;;;;;;;;;6.44;100.00;99443.97;5034788;28;20387;-68
2021/05/17 01:05:47;;;;;;;;;;;;;;;6.38;100.00;99445.34;5034577;28;19952;-68
2021/05/17 01:08:21;;;;;;;;;;;;;;;6.43;100.00;99447.69;5034710;28;19925;-68
2021/05/17 01:10:49;;;;;;;;;;;;;;;6.41;100.00;99444.25;5052038;28;20384;-68
2021/05/17 01:13:15;;;;;;;;;;;;;;;6.35;100.00;99443.75;5034601;28;19925;-68
2021/05/17 01:15:42;;;;;;;;;;;;;;;6.31;100.00;99436.91;5034641;28;19978;-68
2021/05/17 01:18:08;;;;;;;;;;;;;;;6.29;100.00;99432.66;5052313;28;19929;-68
2021/05/17 01:20:35;;;;;;;;;;;;;;;6.25;100.00;99431.19;5034723;28;19946;-67
2021/05/17 01:23:30;;;;;;;;;;;;;;;6.25;100.00;99436.59;5051826;28;19925;-68
2021/05/17 01:26:01;;;;;;;;;;;;;;;6.16;100.00;99435.50;5034466;28;19935;-68
2021/05/17 01:28:31;;;;;;;;;;;;;;;6.10;100.00;99439.56;5051845;28;19951;-68
2021/05/17 01:30:59;;;;;;;;;;;;;;;6.02;100.00;99439.34;5051912;28;20315;-68
2021/05/17 01:33:27;;;;;;;;;;;;;;;5.96;100.00;99434.44;5051992;28;19925;-68
2021/05/17 01:35:57;;;;;;;;;;;;;;;5.93;100.00;99432.84;5034103;28;20350;-68
2021/05/17 01:38:25;;;;;;;;;;;;;;;5.94;100.00;99439.09;5033701;28;20024;-68
2021/05/17 01:40:53;;;;;;;;;;;;;;;5.89;100.00;99433.22;5051729;28;19936;-68
2021/05/17 01:43:20;;;;;;;;;;;;;;;5.93;100.00;99434.69;5017574;28;20396;-68
2021/05/17 01:45:47;;;;;;;;;;;;;;;5.92;100.00;99436.53;5051992;28;19932;-69
2021/05/17 01:48:14;;;;;;;;;;;;;;;5.95;100.00;99438.13;5033895;28;20415;-68
2021/05/17 01:50:40;;;;;;;;;;;;;;;5.99;100.00;99442.31;5034173;28;19972;-68
2021/05/17 01:53:06;;;;;;;;;;;;;;;6.01;100.00;99443.91;5051354;28;20376;-68
2021/05/17 01:55:34;;;;;;;;;;;;;;;6.00;100.00;99435.94;5036657;28;20449;-68
2021/05/17 01:58:06;;;;;;;;;;;;;;;5.97;100.00;99428.06;5051623;28;19936;-68
2021/05/17 02:00:35;;;;;;;;;;;;;;;5.94;100.00;99439.09;5034104;28;20519;-68
2021/05/17 02:03:02;;;;;;;;;;;;;;;5.94;100.00;99429.16;5033686;28;19925;-68
2021/05/17 02:05:29;;;;;;;;;;;;;;;5.97;100.00;99441.53;5033668;28;20067;-68
2021/05/17 02:07:56;;;;;;;;;;;;;;;5.96;100.00;99445.19;5033245;28;19931;-68
2021/05/17 02:10:22;;;;;;;;;;;;;;;5.90;100.00;99437.66;5033615;28;19924;-68
2021/05/17 02:12:51;;;;;;;;;;;;;;;5.85;100.00;99446.97;5033576;28;19928;-68
2021/05/17 02:15:17;;;;;;;;;;;;;;;5.77;100.00;99441.34;5033483;28;20066;-68
2021/05/17 02:17:44;;;;;;;;;;;;;;;5.70;100.00;99445.50;5033489;28;19924;-68
2021/05/17 02:20:14;;;;;;;;;;;;;;;5.64;100.00;99446.03;5051522;28;19961;-68
2021/05/17 02:22:44;;;;;;;;;;;;;;;5.64;100.00;99452.25;5050772;28;20368;-68
2021/05/17 02:25:18;;;;;;;;;;;;;;;5.69;100.00;99447.34;5033454;28;19925;-68
2021/05/17 02:27:44;;;;;;;;;;;;;;;5.70;100.00;99448.19;5050912;28;19978;-68
2021/05/17 02:30:12;;;;;;;;;;;;;;;5.70;100.00;99450.91;5033392;28;20481;-69
2021/05/17 02:32:40;;;;;;;;;;;;;;;5.64;100.00;99441.47;5033340;28;20032;-68
2021/05/17 02:35:08;;;;;;;;;;;;;;;5.64;100.00;99452.25;5032867;28;20538;-68
2021/05/17 02:37:35;;;;;;;;;;;;;;;5.65;100.00;99450.41;5033392;28;19924;-68
2021/05/17 02:40:01;;;;;;;;;;;;;;;5.67;100.00;99453.84;5050827;28;19925;-68
2021/05/17 02:42:28;;;;;;;;;;;;;;;5.74;100.00;99457.75;5033086;28;19928;-68
2021/05/17 02:44:55;;;;;;;;;;;;;;;5.82;100.00;99457.97;5033029;28;20351;-68
2021/05/17 02:47:22;;;;;;;;;;;;;;;5.94;100.00;99460.66;5033060;28;19925;-68
2021/05/17 02:49:49;;;;;;;;;;;;;;;6.16;100.00;99460.63;5053768;28;19940;-68
2021/05/17 02:52:16;;;;;;;;;;;;;;;6.30;100.00;99466.69;5055033;28;19925;-68
2021/05/17 02:54:43;;;;;;;;;;;;;;;6.42;100.00;99467.53;5037064;28;19932;-69
2021/05/17 02:57:10;;;;;;;;;;;;;;;6.49;100.00;99472.28;5054980;28;19951;-68
2021/05/17 03:00:01;;;;;;;;;;;;;;;6.62;100.00;99471.22;5054718;28;20020;-68
2021/05/17 03:02:29;;;;;;;;;;;;;;;6.74;100.00;99478.28;5037305;28;20019;-68
2021/05/17 03:04:56;;;;;;;;;;;;;;;6.84;100.00;99478.34;5036479;28;20388;-68
2021/05/17 03:07:25;;;;;;;;;;;;;;;6.93;100.00;99476.69;5036906;28;19951;-68
2021/05/17 03:09:51;;;;;;;;;;;;;;;7.03;100.00;99477.63;5036754;28;19924;-68
2021/05/17 03:12:18;;;;;;;;;;;;;;;7.12;100.00;99476.84;5054849;28;19929;-68
2021/05/17 03:14:46;;;;;;;;;;;;;;;7.24;100.00;99479.44;5054500;28;19947;-68
2021/05/17 03:17:12;;;;;;;;;;;;;;;7.29;100.00;99482.59;5054036;28;19971;-68
2021/05/17 03:19:42;;;;;;;;;;;;;;;7.37;100.00;99478.22;5036932;28;19924;-68
2021/05/17 03:22:09;;;;;;;;;;;;;;;7.41;100.00;99478.81;5054383;28;19925;-68
2021/05/17 03:24:37;;;;;;;;;;;;;;;7.48;100.00;99477.31;5054586;28;19929;-68
2021/05/17 03:27:08;;;;;;;;;;;;;;;7.54;100.00;99484.84;5054455;28;19986;-68
2021/05/17 03:29:34;;;;;;;;;;;;;;;7.60;100.00;99485.28;5054529;28;20304;-69
2021/05/17 03:32:00;;;;;;;;;;;;;;;7.64;100.00;99481.34;5054395;28;19929;-68
2021/05/17 03:34:25;;;;;;;;;;;;;;;7.70;100.00;99488.91;5053824;28;20048;-68
2021/05/17 03:36:52;;;;;;;;;;;;;;;7.75;100.00;99489.34;5054816;28;19924;-68
2021/05/17 03:39:18;;;;;;;;;;;;;;;7.82;100.00;99485.09;5036198;28;19925;-68
2021/05/17 03:41:44;;;;;;;;;;;;;;;7.89;100.00;99490.81;5057985;28;19947;-69
2021/05/17 03:44:09;;;;;;;;;;;;;;;7.96;100.00;99483.84;5055412;28;19929;-69
2021/05/17 03:46:35;;;;;;;;;;;;;;;8.03;100.00;99486.84;5054418;28;20312;-68
2021/05/17 03:49:01;;;;;;;;;;;;;;;8.11;100.00;99484.34;5059296;28;19925;-68
2021/05/17 03:51:27;;;;;;;;;;;;;;;8.20;100.00;99493.44;5057935;28;19924;-68
2021/05/17 03:53:53;;;;;;;;;;;;;;;8.23;100.00;99493.19;5060126;28;20387;-68
2021/05/17 03:56:19;;;;;;;;;;;;;;;8.26;100.00;99494.72;5053909;28;19929;-69
2021/05/17 03:58:45;;;;;;;;;;;;;;;8.33;100.00;99495.88;5035650;28;19931;-68
2021/05/17 04:01:11;;;;;;;;;;;;;;;8.37;100.00;99502.72;5035502;28;19925;-68
2021/05/17 04:03:37;;;;;;;;;;;;;;;8.25;100.00;99501.16;5053471;28;19925;-67
2021/05/17 04:06:12;;;;;;;;;;;;;;;8.19;100.00;99507.94;5035875;28;19971;-68
2021/05/17 04:14:18;;;;;;;;;;;;;;;8.26;100.00;99508.25;5048608;28;19925;-67
2021/05/17 04:16:44;;;;;;;;;;;;;;;8.25;100.00;99506.56;5053577;28;20134;-67
2021/05/17 04:19:10;;;;;;;;;;;;;;;8.24;100.00;99516.50;5035768;28;19928;-66
2021/05/17 04:21:36;;;;;;;;;;;;;;;8.29;100.00;99516.94;5053620;28;20322;-65
2021/05/17 04:24:02;;;;;;;;;;;;;;;8.27;100.00;99509.97;5053317;28;19925;-65
2021/05/17 04:26:28;;;;;;;;;;;;;;;8.27;100.00;99508.13;5053305;28;19947;-66
2021/05/17 04:28:54;;;;;;;;;;;;;;;8.27;100.00;99521.66;5063941;28;19970;-65
2021/05/17 04:31:20;;;;;;;;;;;;;;;8.23;100.00;99516.63;5053197;28;20438;-65
2021/05/17 04:33:46;;;;;;;;;;;;;;;8.24;100.00;99521.06;5043465;28;19925;-65
2021/05/17 04:36:12;;;;;;;;;;;;;;;8.30;100.00;99517.81;5073509;28;19924;-66
2021/05/17 04:38:38;;;;;;;;;;;;;;;8.33;100.00;99522.94;5072794;28;20372;-66
2021/05/17 04:41:03;;;;;;;;;;;;;;;8.41;100.00;99527.63;5073225;28;19924;-66
2021/05/17 04:43:29;;;;;;;;;;;;;;;8.42;100.00;99535.63;5072883;28;20031;-66
2021/05/17 04:45:56;;;;;;;;;;;;;;;8.48;100.00;99545.88;5064098;28;19932;-66
2021/05/17 04:48:22;;;;;;;;;;;;;;;8.47;100.00;99548.72;5053122;28;19925;-66
2021/05/17 04:50:47;;;;;;;;;;;;;;;8.48;100.00;99545.88;5052319;28;19936;-66
2021/05/17 04:53:13;;;;;;;;;;;;;;;8.52;100.00;99546.47;5034379;28;20031;-66
2021/05/17 04:55:39;;;;;;;;;;;;;;;8.58;100.00;99547.75;5057756;28;19928;-66
2021/05/17 04:58:08;;;;;;;;;;;;;;;8.62;100.00;99536.53;5052430;28;19925;-65
2021/05/17 05:00:34;;;;;;;;;;;;;;;8.64;100.00;99541.78;5068511;28;20470;-66
2021/05/17 05:03:00;;;;;;;;;;;;;;;8.73;100.00;99543.66;5061401;28;19928;-65
2021/05/17 05:05:26;;;;;;;;;;;;;;;8.80;100.00;99533.09;5068946;28;19924;-66
2021/05/17 05:07:52;;;;;;;;;;;;;;;8.93;100.00;99535.53;5048403;28;19932;-66
2021/05/17 05:10:18;;;;;;;;;;;;;;;9.03;100.00;99539.06;5065399;28;20383;-66
2021/05/17 05:12:43;;;;;;;;;;;;;;;9.08;100.00;99544.91;5070302;28;19932;-66
2021/05/17 05:15:10;;;;;;;;;;;;;;;9.20;100.00;99546.47;5052125;28;20384;-66
2021/05/17 05:17:35;;;;;;;;;;;;;;;9.32;100.00;99547.16;5052441;28;19925;-67
2021/05/17 05:20:02;;;;;;;;;;;;;;;9.48;100.00;99554.69;5052415;28;19994;-65
2021/05/17 05:22:28;;;;;;;;;;;;;;;9.65;100.00;99554.94;5052157;28;19928;-66
2021/05/17 05:24:56;;;;;;;;;;;;;;;9.83;100.00;99546.88;5053031;28;20019;-66
2021/05/17 05:27:26;;;;;;;;;;;;;;;10.20;100.00;99554.13;5053282;28;19947;-66
2021/05/17 05:30:03;;;;;;;;;;;;;;;10.46;100.00;99550.72;5067349;28;20300;-66
2021/05/17 05:32:31;;;;;;;;;;;;;;;10.69;100.00;99546.56;5053263;28;20280;-65
2021/05/17 05:34:57;;;;;;;;;;;;;;;11.06;100.00;99539.25;5063965;28;20122;-65
2021/05/17 05:37:24;;;;;;;;;;;;;;;11.36;100.00;99540.69;5071689;28;19925;-65
2021/05/17 05:39:50;;;;;;;;;;;;;;;11.53;100.00;99519.94;5067517;28;19932;-65
2021/05/17 05:42:15;;;;;;;;;;;;;;;11.49;100.00;99513.09;5072000;28;20038;-66
2021/05/17 05:44:45;;;;;;;;;;;;;;;11.67;100.00;99517.63;5070001;28;19997;-66
2021/05/17 05:47:14;;;;;;;;;;;;;;;11.65;100.00;99519.63;5070094;28;19976;-66
2021/05/17 05:49:40;;;;;;;;;;;;;;;11.61;100.00;99516.41;5070658;28;20027;-66
2021/05/17 05:52:07;;;;;;;;;;;;;;;11.52;100.00;99523.66;5065787;28;20023;-66
2021/05/17 05:54:34;;;;;;;;;;;;;;;11.44;100.00;99523.59;5055830;28;19952;-66
2021/05/17 05:57:00;;;;;;;;;;;;;;;11.77;100.00;99531.09;5063011;28;19929;-66
2021/05/17 05:59:26;;;;;;;;;;;;;;;12.55;100.00;99533.63;5071217;28;20290;-67
2021/05/17 06:01:51;;;;;;;;;;;;;;;13.30;100.00;99523.66;5057188;28;19925;-67
2021/05/17 06:04:18;;;;;;;;;;;;;;;13.35;100.00;99517.69;5056622;28;19936;-67
2021/05/17 06:06:44;;;;;;;;;;;;;;;13.23;100.00;99507.13;5040270;28;19924;-68
2021/05/17 06:09:10;;;;;;;;;;;;;;;12.94;100.00;99517.72;5051401;28;20356;-67
2021/05/17 06:11:37;;;;;;;;;;;;;;;12.53;100.00;99522.09;5051279;28;19932;-68
2021/05/17 06:14:03;;;;;;;;;;;;;;;12.10;100.00;99526.69;5057634;28;19974;-67
2021/05/17 06:16:29;;;;;;;;;;;;;;;11.76;100.00;99532.09;5059465;28;19925;-67
2021/05/17 06:18:55;;;;;;;;;;;;;;;11.54;100.00;99535.22;5058845;28;19925;-68
2021/05/17 06:21:21;;;;;;;;;;;;;;;11.30;100.00;99540.47;5051125;28;19939;-69
2021/05/17 06:23:48;;;;;;;;;;;;;;;11.81;100.00;99544.22;5050555;28;20367;-68
2021/05/17 06:26:14;;;;;;;;;;;;;;;12.49;100.00;99537.03;5064519;28;19928;-68
2021/05/17 06:28:41;;;;;;;;;;;;;;;12.68;100.00;99527.72;5069968;28;20323;-68
2021/05/17 06:31:08;;;;;;;;;;;;;;;12.96;100.00;99530.13;5053354;28;19924;-68
2021/05/17 06:33:35;;;;;;;;;;;;;;;13.09;100.00;99532.34;5050770;28;19975;-68
2021/05/17 06:36:01;;;;;;;;;;;;;;;13.86;100.00;99531.91;5050854;28;19929;-68
2021/05/17 06:38:29;;;;;;;;;;;;;;;14.83;100.00;99525.34;5052269;28;19925;-68
2021/05/17 06:40:56;;;;;;;;;;;;;;;15.07;100.00;99526.16;5050780;28;20032;-68
2021/05/17 06:43:22;;;;;;;;;;;;;;;15.13;100.00;99514.50;5038625;28;19925;-68
2021/05/17 06:45:49;;;;;;;;;;;;;;;15.86;100.00;99520.31;5063441;28;19979;-69
2021/05/17 06:48:15;;;;;;;;;;;;;;;15.62;100.00;99520.53;5064553;28;20400;-68
2021/05/17 06:50:41;;;;;;;;;;;;;;;15.52;100.00;99518.09;5051517;28;20421;-69
2021/05/17 06:53:07;;;;;;;;;;;;;;;15.92;100.00;99526.06;5032619;28;19968;-72
2021/05/17 06:55:38;;;;;;;;;;;;;;;16.30;100.00;99525.94;5051050;28;19931;-68
2021/05/17 06:58:14;;;;;;;;;;;;;;;16.87;100.00;99516.06;5050715;28;19932;-69
2021/05/17 07:00:40;;;;;;;;;;;;;;;17.26;100.00;99520.25;5050877;28;20023;-69
2021/05/17 07:03:08;;;;;;;;;;;;;;;17.56;100.00;99518.16;5032987;28;19925;-68
2021/05/17 07:05:34;;;;;;;;;;;;;;;16.78;100.00;99512.56;5032681;28;20018;-69
2021/05/17 07:13:24;;;;;;;;;;;;;;;17.88;100.00;99513.09;5050513;28;20399;-70
2021/05/17 07:15:50;;;;;;;;;;;;;;;18.42;100.00;99513.41;5033103;28;19925;-69
2021/05/17 07:18:17;;;;;;;;;;;;;;;18.47;100.00;99508.13;5050405;28;20016;-69
2021/05/17 07:23:41;;;;;;;;;;;;;;;19.57;100.00;99499.63;5049787;28;19925;-69
2021/05/17 07:26:10;;;;;;;;;;;;;;;19.15;100.00;99498.16;5050765;28;20281;-69
2021/05/17 07:28:36;;;;;;;;;;;;;;;18.35;100.00;99509.78;5050408;28;19925;-70
2021/05/17 07:31:04;;;;;;;;;;;;;;;18.53;100.00;99504.56;5050532;28;19932;-69
2021/05/17 07:33:31;;;;;;;;;;;;;;;19.63;100.00;99500.69;5032506;28;19953;-69
2021/05/17 07:35:57;;;;;;;;;;;;;;;19.52;100.00;99496.66;5051470;28;19925;-68
2021/05/17 07:38:27;;;;;;;;;;;;;;;18.63;100.00;99517.06;5054315;28;19971;-68
2021/05/17 07:40:53;;;;;;;;;;;;;;;18.20;100.00;99508.03;5053956;28;20040;-68
2021/05/17 07:43:19;;;;;;;;;;;;;;;18.67;100.00;99504.59;5054135;28;20438;-69
2021/05/17 07:45:44;;;;;;;;;;;;;;;18.70;100.00;99504.19;5038937;28;20388;-69
2021/05/17 07:48:11;;;;;;;;;;;;;;;19.09;100.00;99502.59;5053637;28;19929;-69
2021/05/17 07:50:38;;;;;;;;;;;;;;;19.37;98.88;99510.66;5054316;28;19925;-68
2021/05/17 07:53:03;;;;;;;;;;;;;;;19.48;98.52;99509.16;5053589;28;19952;-68
2021/05/17 07:55:29;;;;;;;;;;;;;;;19.76;99.24;99515.47;5054346;28;20423;-69
2021/05/17 07:57:55;;;;;;;;;;;;;;;20.06;95.49;99508.44;5054199;28;19940;-69
2021/05/17 08:00:21;;;;;;;;;;;;;;;20.28;91.90;99508.16;5053466;28;20395;-69
2021/05/17 08:02:47;;;;;;;;;;;;;;;20.08;91.72;99508.22;5054161;28;19932;-69
2021/05/17 08:05:13;;;;;;;;;;;;;;;20.50;93.35;99518.88;5053535;28;19935;-69
2021/05/17 08:07:39;;;;;;;;;;;;;;;20.50;89.69;99513.38;5053855;28;20430;-69
2021/05/17 08:10:08;;;;;;;;;;;;;;;21.02;90.52;99516.09;5053927;28;19979;-69
2021/05/17 08:12:34;;;;;;;;;;;;;;;20.73;93.43;99519.19;5053726;28;19928;-69
2021/05/17 08:15:00;;;;;;;;;;;;;;;20.17;82.85;99523.44;5053482;28;20319;-69
2021/05/17 08:17:26;;;;;;;;;;;;;;;19.19;88.29;99527.78;5053039;28;20425;-69
2021/05/17 08:19:51;;;;;;;;;;;;;;;18.08;92.65;99531.63;5053649;28;20031;-73
2021/05/17 08:22:17;;;;;;;;;;;;;;;18.29;99.64;99540.81;5035486;28;19979;-73
2021/05/17 08:24:44;;;;;;;;;;;;;;;17.80;100.00;99529.75;5053358;28;19924;-73
2021/05/17 08:27:10;;;;;;;;;;;;;;;16.82;100.00;99527.63;5053776;28;19933;-73
2021/05/17 08:29:37;;;;;;;;;;;;;;;17.24;100.00;99545.13;5054449;28;21152;-74
2021/05/17 08:32:03;;;;;;;;;;;;;;;18.24;97.63;99542.28;5055007;28;19925;-73
2021/05/17 08:34:29;;;;;;;;;;;;;;;19.16;93.26;99547.47;5060904;28;19925;-73
2021/05/17 08:36:55;;;;;;;;;;;;;;;19.35;91.45;99540.28;5054879;28;20348;-73
2021/05/17 08:39:21;;;;;;;;;;;;;;;19.72;88.59;99539.81;5065824;28;20413;-74
2021/05/17 08:41:48;;;;;;;;;;;;;;;19.67;83.36;99534.97;5055119;28;19925;-74
2021/05/17 08:44:14;;;;;;;;;;;;;;;20.62;86.39;99543.81;5054741;28;19925;-74
2021/05/17 08:46:46;;;;;;;;;;;;;;;20.81;80.30;99542.91;5055543;28;20023;-74
2021/05/17 08:49:12;;;;;;;;;;;;;;;21.26;77.60;99547.53;5053798;28;20428;-74
2021/05/17 08:51:37;;;;;;;;;;;;;;;21.24;72.11;99553.28;5055931;28;19955;-73
2021/05/17 08:54:06;;;;;;;;;;;;;;;20.64;75.58;99550.81;5062215;28;19931;-73
2021/05/17 08:56:32;;;;;;;;;;;;;;;21.10;76.72;99553.56;5054629;28;20393;-73
2021/05/17 08:59:00;;;;;;;;;;;;;;;20.86;73.68;99558.81;5072165;28;19979;-73
2021/05/17 09:01:27;;;;;;;;;;;;;;;21.49;67.33;99544.16;5057166;28;19925;-73
2021/05/17 09:03:53;;;;;;;;;;;;;;;20.82;72.62;99563.91;5054595;28;19970;-73
2021/05/17 09:06:22;;;;;;;;;;;;;;;20.48;68.70;99549.41;5053168;28;19924;-73
2021/05/17 09:08:48;;;;;;;;;;;;;;;21.59;69.45;99545.59;5072164;28;19981;-74
2021/05/17 09:11:28;;;;;;;;;;;;;;;20.63;62.34;99549.16;5071978;28;19925;-74
2021/05/17 09:14:07;;;;;;;;;;;;;;;21.12;64.18;99548.69;5070260;28;20391;-74
2021/05/17 09:16:42;;;;;;;;;;;;;;;19.90;68.59;99550.22;5072026;28;19997;-74
2021/05/17 09:19:10;;;;;;;;;;;;;;;18.18;74.84;99551.31;5053796;28;20303;-74
2021/05/17 09:21:41;;;;;;;;;;;;;;;19.32;79.00;99554.47;5069980;28;19933;-74
2021/05/17 09:24:07;;;;;;;;;;;;;;;20.08;66.84;99541.28;5070857;28;19932;-73
2021/05/17 09:26:33;;;;;;;;;;;;;;;20.29;67.87;99539.31;5070107;28;19959;-73
2021/05/17 09:28:59;;;;;;;;;;;;;;;20.44;68.81;99550.91;5071682;28;20389;-73
2021/05/17 09:31:25;;;;;;;;;;;;;;;20.02;64.04;99554.00;5072045;28;20026;-74
2021/05/17 09:33:52;;;;;;;;;;;;;;;19.34;66.10;99551.50;5071916;28;19952;-73
2021/05/17 09:36:22;;;;;;;;;;;;;;;18.17;70.77;99565.25;5060306;28;19929;-73
2021/05/17 09:38:54;;;;;;;;;;;;;;;17.63;77.78;99561.28;5068204;28;19958;-73
2021/05/17 09:41:20;;;;;;;;;;;;;;;18.14;76.36;99555.50;5071384;28;20270;-73
2021/05/17 09:43:46;;;;;;;;;;;;;;;19.77;67.17;99544.69;5071237;28;19924;-73
2021/05/17 09:46:12;;;;;;;;;;;;;;;19.46;68.27;99552.53;5071808;28;19950;-73
2021/05/17 09:48:46;;;;;;;;;;;;;;;19.81;67.81;99544.06;5070555;28;19931;-74
2021/05/17 09:51:14;;;;;;;;;;;;;;;19.64;74.86;99549.16;5071510;28;19924;-73
2021/05/17 09:53:41;;;;;;;;;;;;;;;18.92;80.56;99561.78;5070721;28;19924;-73
2021/05/17 09:56:08;;;;;;;;;;;;;;;18.36;81.54;99566.44;5071448;28;19931;-73
2021/05/17 09:58:35;;;;;;;;;;;;;;;18.31;88.67;99566.19;5070511;28;19931;-73
2021/05/17 10:01:05;;;;;;;;;;;;;;;17.89;86.32;99568.84;5070437;28;19936;-74
2021/05/17 10:03:33;;;;;;;;;;;;;;;17.62;88.01;99556.84;5038209;28;19929;-74
2021/05/17 10:05:59;;;;;;;;;;;;;;;17.79;85.83;99562.88;5050652;28;20016;-73
2021/05/17 10:08:25;;;;;;;;;;;;;;;17.95;87.31;99570.00;5057188;28;20153;-74
2021/05/17 10:10:51;;;;;;;;;;;;;;;18.53;89.29;99576.00;5069019;28;20457;-74
2021/05/17 10:13:18;;;;;;;;;;;;;;;18.56;84.34;99578.34;5059468;28;19979;-74
2021/05/17 10:15:45;;;;;;;;;;;;;;;18.53;83.64;99575.16;5070955;28;19925;-74
2021/05/17 10:18:12;;;;;;;;;;;;;;;18.83;85.93;99578.44;5057497;28;19940;-74
2021/05/17 10:20:38;;;;;;;;;;;;;;;18.56;83.11;99583.00;5057120;28;19924;-74
2021/05/17 10:23:05;;;;;;;;;;;;;;;18.02;85.57;99576.34;5070104;28;19936;-74
2021/05/17 10:25:33;;;;;;;;;;;;;;;17.52;85.34;99584.63;5071091;28;20013;-74
2021/05/17 10:28:00;;;;;;;;;;;;;;;17.05;87.17;99586.91;5052803;28;19931;-74
2021/05/17 10:30:28;;;;;;;;;;;;;;;17.01;91.70;99594.69;5070780;28;19960;-74
2021/05/17 10:32:55;;;;;;;;;;;;;;;17.01;92.76;99591.94;5071036;28;19924;-74
2021/05/17 10:35:22;;;;;;;;;;;;;;;17.02;86.42;99590.03;5050917;28;20406;-74
2021/05/17 10:37:48;;;;;;;;;;;;;;;17.81;90.00;99583.59;5050772;28;19925;-74
2021/05/17 10:40:33;;;;;;;;;;;;;;;19.65;73.60;99577.53;5052861;28;19975;-74
2021/05/17 10:43:09;;;;;;;;;;;;;;;20.84;64.23;99577.47;5065305;28;19931;-74
2021/05/17 10:48:21;;;;;;;;;;;;;;;20.22;61.30;99573.22;5068631;28;19928;-74
2021/05/17 10:50:49;;;;;;;;;;;;;;;19.74;66.52;99582.59;5070853;28;19924;-74
2021/05/17 10:53:35;;;;;;;;;;;;;;;19.34;63.97;99577.09;5054121;28;19925;-74
2021/05/17 10:56:01;;;;;;;;;;;;;;;19.55;67.56;99583.47;5051436;28;19929;-74
2021/05/17 11:01:25;;;;;;;;;;;;;;;18.53;75.12;99581.50;5046174;28;20026;-74
2021/05/17 11:04:06;;;;;;;;;;;;;;;18.50;76.00;99576.41;5070848;28;19928;-74
2021/05/17 11:06:32;;;;;;;;;;;;;;;18.26;78.29;99563.19;5053354;28;19925;-74
2021/05/17 11:09:05;;;;;;;;;;;;;;;18.44;77.09;99569.00;5050504;28;19971;-74
2021/05/17 11:11:32;;;;;;;;;;;;;;;19.30;74.19;99559.31;5066254;28;19928;-74
2021/05/17 11:14:13;;;;;;;;;;;;;;;20.09;64.42;99551.22;5073816;28;19962;-74
2021/05/17 11:16:57;;;;;;;;;;;;;;;20.96;61.96;99550.88;5072338;28;19970;-71
2021/05/17 11:19:23;;;;;;;;;;;;;;;21.03;57.94;99548.09;5050991;28;20031;-70
2021/05/17 11:21:57;;;;;;;;;;;;;;;21.67;53.25;99545.31;5054640;28;19924;-70
2021/05/17 11:24:24;;;;;;;;;;;;;;;21.95;53.49;99544.81;5055367;28;20383;-71
2021/05/17 11:26:54;;;;;;;;;;;;;;;21.71;51.96;99552.06;5054161;28;19925;-70
2021/05/17 11:29:30;;;;;;;;;;;;;;;21.97;49.01;99539.91;5057252;28;20368;-70
2021/05/17 11:32:07;;;;;;;;;;;;;;;22.60;48.12;99539.88;5073714;28;19932;-70
2021/05/17 11:34:33;;;;;;;;;;;;;;;22.76;47.61;99541.97;5061107;28;20343;-70
2021/05/17 11:37:12;;;;;;;;;;;;;;;22.34;49.85;99539.06;5070004;28;19978;-70
2021/05/17 11:39:39;;;;;;;;;;;;;;;21.57;51.56;99551.34;5062594;28;19931;-70
2021/05/17 11:42:06;;;;;;;;;;;;;;;20.39;55.10;99543.31;5054242;28;20303;-70
2021/05/17 11:44:35;;;;;;;;;;;;;;;20.66;56.18;99542.34;5066887;28;20423;-69
2021/05/17 11:47:02;;;;;;;;;;;;;;;21.52;52.51;99540.09;5055842;28;20307;-69
2021/05/17 11:49:29;;;;;;;;;;;;;;;22.39;50.09;99539.25;5056569;28;19932;-69
2021/05/17 11:51:57;;;;;;;;;;;;;;;22.30;47.68;99540.63;5054058;28;19925;-68
2021/05/17 11:54:23;;;;;;;;;;;;;;;23.01;46.31;99546.50;5053952;28;20296;-68
2021/05/17 11:56:50;;;;;;;;;;;;;;;22.31;47.35;99543.16;5053580;28;20345;-68
2021/05/17 11:59:18;;;;;;;;;;;;;;;22.33;45.97;99534.66;5037207;28;19971;-68
2021/05/17 12:01:46;;;;;;;;;;;;;;;21.63;46.49;99533.84;5053243;28;19931;-68
2021/05/17 12:04:16;;;;;;;;;;;;;;;21.23;42.84;99535.03;5072730;28;20307;-67
2021/05/17 12:06:42;;;;;;;;;;;;;;;22.24;44.39;99528.56;5072835;28;19925;-68
2021/05/17 12:09:09;;;;;;;;;;;;;;;21.87;44.22;99532.16;5073380;28;19931;-68
2021/05/17 12:11:35;;;;;;;;;;;;;;;22.02;43.74;99529.03;5073744;28;20287;-67
2021/05/17 12:14:07;;;;;;;;;;;;;;;22.73;40.29;99548.00;5073008;28;19928;-67
2021/05/17 12:16:34;;;;;;;;;;;;;;;23.54;43.01;99536.56;5073640;28;19978;-68
2021/05/17 12:19:00;;;;;;;;;;;;;;;22.46;43.40;99541.94;5073418;28;20380;-68
2021/05/17 12:21:32;;;;;;;;;;;;;;;21.51;46.14;99546.69;5072732;28;19932;-67
2021/05/17 12:23:58;;;;;;;;;;;;;;;20.73;46.19;99545.94;5073097;28;19932;-68
2021/05/17 12:26:24;;;;;;;;;;;;;;;19.86;49.37;99551.72;5072999;28;19924;-67
2021/05/17 12:28:56;;;;;;;;;;;;;;;19.26;52.55;99549.78;5073322;28;20313;-67
2021/05/17 12:31:22;;;;;;;;;;;;;;;20.17;51.04;99533.63;5073425;28;19924;-67
2021/05/17 12:33:49;;;;;;;;;;;;;;;21.63;47.72;99522.81;5072907;28;20023;-67
2021/05/17 12:36:15;;;;;;;;;;;;;;;22.35;43.48;99526.97;5073302;28;19935;-67
2021/05/17 12:38:44;;;;;;;;;;;;;;;22.51;44.20;99536.56;5072748;28;19928;-67
2021/05/17 12:41:30;;;;;;;;;;;;;;;22.52;44.22;99550.16;5073200;28;19956;-67
2021/05/17 12:43:56;;;;;;;;;;;;;;;21.61;40.91;99541.53;5072454;28;19964;-67
2021/05/17 12:46:26;;;;;;;;;;;;;;;22.16;42.52;99537.16;5073024;28;19930;-67
2021/05/17 12:48:54;;;;;;;;;;;;;;;22.37;42.02;99545.03;5073372;28;20371;-68
2021/05/17 12:51:22;;;;;;;;;;;;;;;22.29;40.70;99541.69;5072944;28;19928;-67
2021/05/17 12:53:49;;;;;;;;;;;;;;;21.65;44.45;99548.28;5054896;28;20346;-68
2021/05/17 12:56:22;;;;;;;;;;;;;;;21.27;46.67;99546.44;5072639;28;19932;-68
2021/05/17 12:58:48;;;;;;;;;;;;;;;20.73;47.46;99549.53;5073008;28;19959;-68
2021/05/17 13:01:16;;;;;;;;;;;;;;;20.27;47.77;99549.69;5072708;28;20043;-68
2021/05/17 13:03:42;;;;;;;;;;;;;;;19.65;48.85;99545.34;5072351;28;19982;-68
2021/05/17 13:06:10;;;;;;;;;;;;;;;18.81;52.16;99555.78;5072750;28;19967;-67
2021/05/17 13:08:55;;;;;;;;;;;;;;;19.02;55.93;99579.56;5072464;28;19925;-68